createdAt,value
2023-03-05T00:01:23.061Z,68.89
2023-03-05T00:11:30.321Z,69.61
2023-03-05T00:21:40.657Z,70.39
2023-03-05T00:31:44.566Z,70.53
2023-03-05T00:41:48.010Z,70.66
2023-03-05T00:51:52.343Z,71.24
2023-03-05T01:01:56.404Z,72.28
2023-03-05T01:12:00.312Z,72.65
2023-03-05T01:22:03.491Z,73.27
2023-03-05T01:32:06.607Z,74.02
2023-03-05T01:42:10.267Z,73.66
2023-03-05T01:52:20.604Z,74.01
2023-03-05T02:02:26.021Z,74.04
2023-03-05T02:12:29.665Z,74.27
2023-03-05T02:22:32.885Z,74.45
2023-03-05T02:32:35.945Z,74.57
2023-03-05T02:42:39.658Z,74.65
2023-03-05T02:52:43.655Z,75.04
2023-03-05T03:02:50.568Z,75.27
2023-03-05T03:12:53.652Z,75.18
2023-03-05T03:22:56.684Z,74.91
2023-03-05T03:32:59.721Z,74.87
2023-03-05T03:43:02.917Z,74.88
2023-03-05T03:53:06.091Z,75.08
2023-03-05T04:03:09.396Z,74.88
2023-03-05T04:13:12.401Z,74.94
2023-03-05T04:23:16.197Z,74.88
2023-03-05T04:33:20.475Z,75.06
2023-03-05T04:43:23.618Z,75.21
2023-03-05T04:53:26.751Z,75.47
2023-03-05T05:03:30.411Z,75.69
2023-03-05T05:13:34.188Z,75.61
2023-03-05T05:23:37.740Z,75.35
2023-03-05T05:33:41.881Z,74.99
2023-03-05T05:43:45.012Z,75.22
2023-03-05T05:53:48.866Z,75.58
2023-03-05T06:03:52.442Z,75.72
2023-03-05T06:13:56.191Z,75.59
2023-03-05T06:23:59.312Z,75.68
2023-03-05T06:34:02.437Z,75.72
2023-03-05T06:44:05.915Z,75.63
2023-03-05T06:54:13.802Z,75.96
2023-03-05T07:04:17.526Z,75.56
2023-03-05T07:14:20.517Z,74.88
2023-03-05T07:24:29.111Z,74.29
2023-03-05T07:34:32.176Z,74.25
2023-03-05T07:44:36.331Z,73.63
2023-03-05T07:54:39.864Z,72.45
2023-03-05T08:04:43.410Z,72.38
2023-03-05T08:14:48.044Z,72.13
2023-03-05T08:24:52.290Z,71.21
2023-03-05T08:34:59.679Z,70.73
2023-03-05T08:45:03.732Z,70.57
2023-03-05T08:55:07.205Z,69.99
2023-03-05T09:05:10.850Z,69.42
2023-03-05T09:15:13.949Z,69.29
2023-03-05T09:25:18.215Z,68.23
2023-03-05T09:35:21.294Z,67.91
2023-03-05T09:45:41.557Z,67.33
2023-03-05T09:55:51.914Z,67.33
2023-03-05T10:06:15.172Z,67.44
2023-03-05T10:16:36.333Z,67.52
2023-03-05T10:27:08.271Z,67.90
2023-03-05T10:37:30.519Z,67.75
2023-03-05T10:47:49.666Z,67.51
2023-03-05T10:57:52.741Z,68.58
2023-03-05T11:07:56.038Z,69.64
2023-03-05T11:18:25.309Z,70.16
2023-03-05T11:28:37.981Z,70.28
2023-03-05T11:38:51.851Z,69.12
2023-03-05T11:48:56.826Z,68.72
2023-03-05T11:59:11.978Z,68.78
2023-03-05T12:09:34.037Z,68.76
2023-03-05T12:20:07.054Z,68.12
2023-03-05T12:30:29.487Z,68.34
2023-03-05T12:40:35.609Z,69.11
2023-03-05T12:50:38.591Z,68.39
2023-03-05T13:00:53.690Z,68.20
2023-03-05T13:11:04.168Z,69.02
2023-03-05T13:21:18.849Z,71.55
2023-03-05T13:31:23.212Z,72.71
2023-03-05T13:41:28.123Z,73.34
2023-03-05T13:51:46.796Z,73.75
2023-03-05T14:01:50.788Z,74.41
2023-03-05T14:12:03.111Z,73.67
2023-03-05T14:22:06.413Z,73.10
2023-03-05T14:32:25.485Z,71.70
2023-03-05T14:42:33.743Z,70.78
2023-03-05T14:52:39.100Z,69.20
2023-03-05T15:02:42.647Z,68.28
2023-03-05T15:12:46.367Z,67.30
2023-03-05T15:22:49.813Z,66.96
2023-03-05T15:32:55.386Z,66.79
2023-03-05T15:43:01.148Z,67.60
2023-03-05T15:53:04.323Z,68.34
2023-03-05T16:03:07.818Z,68.40
2023-03-05T16:13:15.479Z,68.73
2023-03-05T16:23:18.839Z,69.13
2023-03-05T16:33:22.430Z,69.05
2023-03-05T16:43:25.859Z,69.44
2023-03-05T16:53:28.923Z,69.20
2023-03-05T17:03:32.097Z,68.75
2023-03-05T17:14:00.972Z,69.19
2023-03-05T17:24:04.240Z,69.68
2023-03-05T17:34:07.956Z,70.34
2023-03-05T17:44:12.142Z,69.52
2023-03-05T17:54:15.938Z,69.68
2023-03-05T18:04:19.669Z,69.41
2023-03-05T18:14:22.799Z,69.47
2023-03-05T18:24:25.845Z,69.01
2023-03-05T18:34:29.730Z,69.31
2023-03-05T18:44:32.963Z,68.89
2023-03-05T18:54:35.976Z,68.72
2023-03-05T19:04:39.133Z,68.97
2023-03-05T19:14:42.373Z,69.48
2023-03-05T19:24:45.520Z,69.46
2023-03-05T19:34:48.809Z,69.83
2023-03-05T19:44:51.966Z,70.51
2023-03-05T19:54:55.011Z,70.70
2023-03-05T20:04:59.214Z,71.44
2023-03-05T20:15:03.871Z,72.57
2023-03-05T20:25:07.646Z,72.88
2023-03-05T20:35:15.359Z,73.19
2023-03-05T20:45:18.746Z,73.12
2023-03-05T20:55:23.570Z,73.35
2023-03-05T21:05:31.437Z,73.54
2023-03-05T21:15:34.442Z,73.63
2023-03-05T21:25:37.562Z,73.74
2023-03-05T21:35:41.914Z,73.96
2023-03-05T21:45:49.278Z,74.10
2023-03-05T21:56:02.768Z,74.51
2023-03-05T22:06:14.099Z,74.91
2023-03-05T22:16:23.294Z,75.07
2023-03-05T22:26:34.925Z,75.56
2023-03-05T22:36:38.057Z,75.42
2023-03-05T22:46:41.133Z,75.49
2023-03-05T22:56:44.766Z,75.23
2023-03-05T23:06:48.782Z,75.51
2023-03-05T23:16:51.801Z,75.70
2023-03-05T23:26:54.846Z,76.04
2023-03-05T23:37:00.552Z,76.53
2023-03-05T23:47:03.854Z,76.68
2023-03-05T23:57:07.074Z,76.92
